Avon, New York
Current Conditions -  °F | °C
As of 1:54 PM on Thursday 18 Dec 2014 (Local Time) from KROC Reporting Station
Overcast Overcast  
Wind Chill: 22°   Ceiling: 1700
Heat Index: 32°   Visibility: 10mi
Dew Point: 26°   Wind: 15mph
Humidity: 79%   Direction: 290°WNW
Pressure: 30.03"   Gusts: 21mph
Location:  42.91°N, 77.75°W
Report Text: KROC 181854Z 29013G18KT 10SM OVC017 00/M03 A3003 RMK AO2 SLP178 T00001033
Loading
Personal Weather Stations






























Interactive Weather Map New forecast layout! Learn more

10-Day Weather Forecast

Advertisements
Track Severe Weather on mobile